sensor_id;sensor_type;location;lat;lon;timestamp;P1;durP1;ratioP1;P2;durP2;ratioP2
52188;SDS011;38162;45.926;13.608;2022-07-29T00:01:20;16.27;;;10.93;;
52188;SDS011;38162;45.926;13.608;2022-07-29T00:03:46;17.13;;;11.45;;
52188;SDS011;38162;45.926;13.608;2022-07-29T00:06:12;16.83;;;10.55;;
52188;SDS011;38162;45.926;13.608;2022-07-29T00:08:38;17.23;;;11.25;;
52188;SDS011;38162;45.926;13.608;2022-07-29T00:11:03;23.17;;;11.52;;
52188;SDS011;38162;45.926;13.608;2022-07-29T00:13:29;18.75;;;12.18;;
52188;SDS011;38162;45.926;13.608;2022-07-29T00:15:55;18.17;;;10.75;;
52188;SDS011;38162;45.926;13.608;2022-07-29T00:18:20;18.10;;;9.93;;
52188;SDS011;38162;45.926;13.608;2022-07-29T00:20:46;17.77;;;9.68;;
52188;SDS011;38162;45.926;13.608;2022-07-29T00:23:11;20.35;;;9.93;;
52188;SDS011;38162;45.926;13.608;2022-07-29T00:25:37;16.25;;;10.02;;
52188;SDS011;38162;45.926;13.608;2022-07-29T00:28:03;14.63;;;10.00;;
52188;SDS011;38162;45.926;13.608;2022-07-29T00:30:29;12.40;;;9.13;;
52188;SDS011;38162;45.926;13.608;2022-07-29T00:32:54;13.90;;;9.40;;
52188;SDS011;38162;45.926;13.608;2022-07-29T00:35:20;20.52;;;9.20;;
52188;SDS011;38162;45.926;13.608;2022-07-29T00:38:04;15.45;;;8.95;;
52188;SDS011;38162;45.926;13.608;2022-07-29T00:40:30;15.48;;;8.35;;
52188;SDS011;38162;45.926;13.608;2022-07-29T00:42:55;14.07;;;7.60;;
52188;SDS011;38162;45.926;13.608;2022-07-29T00:45:21;14.07;;;8.70;;
52188;SDS011;38162;45.926;13.608;2022-07-29T00:47:47;12.32;;;7.20;;
52188;SDS011;38162;45.926;13.608;2022-07-29T00:50:13;10.52;;;7.03;;
52188;SDS011;38162;45.926;13.608;2022-07-29T00:52:40;12.60;;;5.78;;
52188;SDS011;38162;45.926;13.608;2022-07-29T00:55:08;7.10;;;5.70;;
52188;SDS011;38162;45.926;13.608;2022-07-29T00:57:36;7.68;;;5.75;;
52188;SDS011;38162;45.926;13.608;2022-07-29T01:00:03;6.43;;;5.55;;
52188;SDS011;38162;45.926;13.608;2022-07-29T01:02:29;7.30;;;5.55;;
52188;SDS011;38162;45.926;13.608;2022-07-29T01:04:56;6.85;;;5.85;;
52188;SDS011;38162;45.926;13.608;2022-07-29T01:07:23;12.20;;;6.25;;
52188;SDS011;38162;45.926;13.608;2022-07-29T01:09:50;9.35;;;5.65;;
52188;SDS011;38162;45.926;13.608;2022-07-29T01:12:18;8.68;;;5.57;;
52188;SDS011;38162;45.926;13.608;2022-07-29T01:14:49;7.07;;;5.50;;
52188;SDS011;38162;45.926;13.608;2022-07-29T01:20:07;10.13;;;5.78;;
52188;SDS011;38162;45.926;13.608;2022-07-29T01:31:02;6.68;;;5.00;;
52188;SDS011;38162;45.926;13.608;2022-07-29T01:33:29;6.13;;;4.60;;
52188;SDS011;38162;45.926;13.608;2022-07-29T01:36:14;9.07;;;4.95;;
52188;SDS011;38162;45.926;13.608;2022-07-29T01:39:06;9.07;;;4.45;;
52188;SDS011;38162;45.926;13.608;2022-07-29T01:41:37;7.68;;;4.68;;
52188;SDS011;38162;45.926;13.608;2022-07-29T01:44:13;5.95;;;4.45;;
52188;SDS011;38162;45.926;13.608;2022-07-29T01:46:45;5.28;;;4.68;;
52188;SDS011;38162;45.926;13.608;2022-07-29T01:49:18;6.57;;;4.82;;
52188;SDS011;38162;45.926;13.608;2022-07-29T01:51:57;9.30;;;5.00;;
52188;SDS011;38162;45.926;13.608;2022-07-29T01:57:07;8.50;;;5.63;;
52188;SDS011;38162;45.926;13.608;2022-07-29T01:59:36;11.45;;;5.78;;
52188;SDS011;38162;45.926;13.608;2022-07-29T02:02:03;8.65;;;6.00;;
52188;SDS011;38162;45.926;13.608;2022-07-29T02:04:33;9.55;;;6.25;;
52188;SDS011;38162;45.926;13.608;2022-07-29T02:07:02;7.82;;;6.07;;
52188;SDS011;38162;45.926;13.608;2022-07-29T02:09:31;7.40;;;5.68;;
52188;SDS011;38162;45.926;13.608;2022-07-29T02:12:00;8.75;;;6.00;;
52188;SDS011;38162;45.926;13.608;2022-07-29T02:14:29;8.00;;;5.30;;
52188;SDS011;38162;45.926;13.608;2022-07-29T02:16:58;9.52;;;5.82;;
52188;SDS011;38162;45.926;13.608;2022-07-29T02:19:26;9.82;;;5.75;;
52188;SDS011;38162;45.926;13.608;2022-07-29T02:21:54;6.65;;;4.95;;
52188;SDS011;38162;45.926;13.608;2022-07-29T02:24:23;9.65;;;4.55;;
52188;SDS011;38162;45.926;13.608;2022-07-29T02:26:51;5.32;;;4.07;;
52188;SDS011;38162;45.926;13.608;2022-07-29T02:29:21;10.82;;;4.55;;
52188;SDS011;38162;45.926;13.608;2022-07-29T02:31:50;6.28;;;4.40;;
52188;SDS011;38162;45.926;13.608;2022-07-29T02:34:17;6.05;;;4.55;;
52188;SDS011;38162;45.926;13.608;2022-07-29T02:36:44;6.47;;;4.65;;
52188;SDS011;38162;45.926;13.608;2022-07-29T02:39:11;7.10;;;4.65;;
52188;SDS011;38162;45.926;13.608;2022-07-29T02:41:48;7.68;;;5.70;;
52188;SDS011;38162;45.926;13.608;2022-07-29T02:44:17;10.35;;;5.28;;
52188;SDS011;38162;45.926;13.608;2022-07-29T02:46:58;7.20;;;5.30;;
52188;SDS011;38162;45.926;13.608;2022-07-29T02:52:27;7.15;;;5.03;;
52188;SDS011;38162;45.926;13.608;2022-07-29T02:58:02;8.13;;;5.32;;
52188;SDS011;38162;45.926;13.608;2022-07-29T03:00:34;6.45;;;4.93;;
52188;SDS011;38162;45.926;13.608;2022-07-29T03:03:03;14.30;;;4.82;;
52188;SDS011;38162;45.926;13.608;2022-07-29T03:05:33;8.00;;;4.57;;
52188;SDS011;38162;45.926;13.608;2022-07-29T03:08:01;7.35;;;4.72;;
52188;SDS011;38162;45.926;13.608;2022-07-29T03:10:29;8.18;;;5.40;;
52188;SDS011;38162;45.926;13.608;2022-07-29T03:12:56;11.25;;;7.63;;
52188;SDS011;38162;45.926;13.608;2022-07-29T03:15:22;18.05;;;7.88;;
52188;SDS011;38162;45.926;13.608;2022-07-29T03:17:49;12.73;;;8.27;;
52188;SDS011;38162;45.926;13.608;2022-07-29T03:20:16;9.35;;;7.60;;
52188;SDS011;38162;45.926;13.608;2022-07-29T03:22:43;14.70;;;7.82;;
52188;SDS011;38162;45.926;13.608;2022-07-29T03:25:12;10.30;;;7.53;;
52188;SDS011;38162;45.926;13.608;2022-07-29T03:27:39;11.05;;;7.78;;
52188;SDS011;38162;45.926;13.608;2022-07-29T03:30:05;8.45;;;5.85;;
52188;SDS011;38162;45.926;13.608;2022-07-29T03:32:32;7.95;;;4.28;;
52188;SDS011;38162;45.926;13.608;2022-07-29T03:34:58;5.93;;;4.13;;
52188;SDS011;38162;45.926;13.608;2022-07-29T03:37:23;6.85;;;3.50;;
52188;SDS011;38162;45.926;13.608;2022-07-29T03:39:49;8.35;;;4.10;;
52188;SDS011;38162;45.926;13.608;2022-07-29T03:42:17;3.58;;;2.90;;
52188;SDS011;38162;45.926;13.608;2022-07-29T03:44:47;4.95;;;2.90;;
52188;SDS011;38162;45.926;13.608;2022-07-29T03:47:14;4.93;;;3.03;;
52188;SDS011;38162;45.926;13.608;2022-07-29T03:49:41;5.28;;;3.22;;
52188;SDS011;38162;45.926;13.608;2022-07-29T03:52:09;5.90;;;3.20;;
52188;SDS011;38162;45.926;13.608;2022-07-29T03:54:35;4.20;;;2.78;;
52188;SDS011;38162;45.926;13.608;2022-07-29T03:57:01;6.43;;;3.10;;
52188;SDS011;38162;45.926;13.608;2022-07-29T03:59:28;5.53;;;2.90;;
52188;SDS011;38162;45.926;13.608;2022-07-29T04:01:57;4.82;;;3.10;;
52188;SDS011;38162;45.926;13.608;2022-07-29T04:04:24;6.78;;;3.88;;
52188;SDS011;38162;45.926;13.608;2022-07-29T04:06:50;7.28;;;4.43;;
52188;SDS011;38162;45.926;13.608;2022-07-29T04:09:16;9.48;;;5.00;;
52188;SDS011;38162;45.926;13.608;2022-07-29T04:11:42;9.63;;;4.63;;
52188;SDS011;38162;45.926;13.608;2022-07-29T04:14:07;9.93;;;4.93;;
52188;SDS011;38162;45.926;13.608;2022-07-29T04:16:33;12.40;;;5.00;;
52188;SDS011;38162;45.926;13.608;2022-07-29T04:18:59;8.32;;;4.90;;
52188;SDS011;38162;45.926;13.608;2022-07-29T04:21:25;8.23;;;5.15;;
52188;SDS011;38162;45.926;13.608;2022-07-29T04:23:50;10.05;;;5.50;;
52188;SDS011;38162;45.926;13.608;2022-07-29T04:26:16;8.93;;;5.00;;
52188;SDS011;38162;45.926;13.608;2022-07-29T04:28:43;11.32;;;5.32;;
52188;SDS011;38162;45.926;13.608;2022-07-29T04:31:09;6.78;;;5.38;;
52188;SDS011;38162;45.926;13.608;2022-07-29T04:33:35;8.98;;;5.00;;
52188;SDS011;38162;45.926;13.608;2022-07-29T04:36:01;6.65;;;5.00;;
52188;SDS011;38162;45.926;13.608;2022-07-29T04:38:27;9.23;;;4.82;;
52188;SDS011;38162;45.926;13.608;2022-07-29T04:40:52;7.88;;;4.85;;
52188;SDS011;38162;45.926;13.608;2022-07-29T04:43:18;8.63;;;4.97;;
52188;SDS011;38162;45.926;13.608;2022-07-29T04:45:44;5.88;;;4.50;;
52188;SDS011;38162;45.926;13.608;2022-07-29T04:48:10;6.03;;;4.75;;
52188;SDS011;38162;45.926;13.608;2022-07-29T04:50:39;5.68;;;4.53;;
52188;SDS011;38162;45.926;13.608;2022-07-29T04:53:05;9.38;;;4.60;;
52188;SDS011;38162;45.926;13.608;2022-07-29T04:55:31;6.13;;;4.32;;
52188;SDS011;38162;45.926;13.608;2022-07-29T04:57:57;13.98;;;4.70;;
52188;SDS011;38162;45.926;13.608;2022-07-29T05:00:22;8.73;;;5.03;;
52188;SDS011;38162;45.926;13.608;2022-07-29T05:02:48;9.05;;;4.75;;
52188;SDS011;38162;45.926;13.608;2022-07-29T05:05:14;9.05;;;5.03;;
52188;SDS011;38162;45.926;13.608;2022-07-29T05:07:40;6.82;;;4.80;;
52188;SDS011;38162;45.926;13.608;2022-07-29T05:10:06;8.65;;;5.57;;
52188;SDS011;38162;45.926;13.608;2022-07-29T05:12:33;9.93;;;5.43;;
52188;SDS011;38162;45.926;13.608;2022-07-29T05:14:58;13.48;;;5.75;;
52188;SDS011;38162;45.926;13.608;2022-07-29T05:17:24;6.55;;;5.00;;
52188;SDS011;38162;45.926;13.608;2022-07-29T05:19:50;30.42;;;12.38;;
52188;SDS011;38162;45.926;13.608;2022-07-29T05:22:17;63.42;;;8.95;;
52188;SDS011;38162;45.926;13.608;2022-07-29T05:24:44;49.10;;;8.00;;
52188;SDS011;38162;45.926;13.608;2022-07-29T05:27:09;20.33;;;7.95;;
52188;SDS011;38162;45.926;13.608;2022-07-29T05:29:35;8.63;;;5.30;;
52188;SDS011;38162;45.926;13.608;2022-07-29T05:32:01;10.13;;;5.07;;
52188;SDS011;38162;45.926;13.608;2022-07-29T05:34:27;14.57;;;5.82;;
52188;SDS011;38162;45.926;13.608;2022-07-29T05:36:53;10.68;;;5.05;;
52188;SDS011;38162;45.926;13.608;2022-07-29T05:39:19;9.75;;;4.50;;
52188;SDS011;38162;45.926;13.608;2022-07-29T05:41:45;15.55;;;5.18;;
52188;SDS011;38162;45.926;13.608;2022-07-29T05:44:11;12.57;;;4.38;;
52188;SDS011;38162;45.926;13.608;2022-07-29T05:46:38;11.70;;;4.65;;
52188;SDS011;38162;45.926;13.608;2022-07-29T05:49:04;9.65;;;4.82;;
52188;SDS011;38162;45.926;13.608;2022-07-29T05:51:31;9.00;;;4.38;;
52188;SDS011;38162;45.926;13.608;2022-07-29T05:53:57;6.18;;;4.50;;
52188;SDS011;38162;45.926;13.608;2022-07-29T05:56:23;6.95;;;4.20;;
52188;SDS011;38162;45.926;13.608;2022-07-29T05:58:49;7.10;;;3.85;;
52188;SDS011;38162;45.926;13.608;2022-07-29T06:01:15;14.18;;;4.78;;
52188;SDS011;38162;45.926;13.608;2022-07-29T06:03:41;8.45;;;4.05;;
52188;SDS011;38162;45.926;13.608;2022-07-29T06:06:08;5.75;;;4.22;;
52188;SDS011;38162;45.926;13.608;2022-07-29T06:08:33;8.27;;;4.47;;
52188;SDS011;38162;45.926;13.608;2022-07-29T06:11:00;7.50;;;4.03;;
52188;SDS011;38162;45.926;13.608;2022-07-29T06:13:26;8.85;;;4.20;;
52188;SDS011;38162;45.926;13.608;2022-07-29T06:15:51;13.30;;;4.07;;
52188;SDS011;38162;45.926;13.608;2022-07-29T06:18:17;5.35;;;3.40;;
52188;SDS011;38162;45.926;13.608;2022-07-29T06:20:43;5.78;;;3.97;;
52188;SDS011;38162;45.926;13.608;2022-07-29T06:23:09;13.15;;;4.45;;
52188;SDS011;38162;45.926;13.608;2022-07-29T06:25:35;11.43;;;3.95;;
52188;SDS011;38162;45.926;13.608;2022-07-29T06:28:01;6.70;;;3.75;;
52188;SDS011;38162;45.926;13.608;2022-07-29T06:30:28;5.35;;;3.70;;
52188;SDS011;38162;45.926;13.608;2022-07-29T06:32:54;12.30;;;3.70;;
52188;SDS011;38162;45.926;13.608;2022-07-29T06:35:20;5.15;;;3.33;;
52188;SDS011;38162;45.926;13.608;2022-07-29T06:37:46;6.68;;;3.80;;
52188;SDS011;38162;45.926;13.608;2022-07-29T06:40:12;11.27;;;3.83;;
52188;SDS011;38162;45.926;13.608;2022-07-29T06:42:56;10.95;;;3.50;;
52188;SDS011;38162;45.926;13.608;2022-07-29T06:45:22;6.45;;;3.85;;
52188;SDS011;38162;45.926;13.608;2022-07-29T06:47:48;7.45;;;3.65;;
52188;SDS011;38162;45.926;13.608;2022-07-29T06:50:14;10.80;;;3.95;;
52188;SDS011;38162;45.926;13.608;2022-07-29T06:52:40;9.63;;;4.32;;
52188;SDS011;38162;45.926;13.608;2022-07-29T06:55:06;13.68;;;4.10;;
52188;SDS011;38162;45.926;13.608;2022-07-29T06:57:33;8.02;;;3.97;;
52188;SDS011;38162;45.926;13.608;2022-07-29T06:59:59;6.78;;;3.72;;
52188;SDS011;38162;45.926;13.608;2022-07-29T07:02:24;7.97;;;4.22;;
52188;SDS011;38162;45.926;13.608;2022-07-29T07:04:50;7.50;;;4.30;;
52188;SDS011;38162;45.926;13.608;2022-07-29T07:07:16;9.57;;;4.65;;
52188;SDS011;38162;45.926;13.608;2022-07-29T07:09:42;6.38;;;3.90;;
52188;SDS011;38162;45.926;13.608;2022-07-29T07:12:08;8.48;;;3.60;;
52188;SDS011;38162;45.926;13.608;2022-07-29T07:14:34;14.80;;;4.00;;
52188;SDS011;38162;45.926;13.608;2022-07-29T07:16:59;34.65;;;5.50;;
52188;SDS011;38162;45.926;13.608;2022-07-29T07:19:25;21.25;;;4.43;;
52188;SDS011;38162;45.926;13.608;2022-07-29T07:21:54;11.00;;;3.15;;
52188;SDS011;38162;45.926;13.608;2022-07-29T07:24:20;18.17;;;3.20;;
52188;SDS011;38162;45.926;13.608;2022-07-29T07:26:46;11.15;;;3.55;;
52188;SDS011;38162;45.926;13.608;2022-07-29T07:29:11;7.22;;;3.33;;
52188;SDS011;38162;45.926;13.608;2022-07-29T07:31:38;6.35;;;3.45;;
52188;SDS011;38162;45.926;13.608;2022-07-29T07:34:03;8.70;;;3.63;;
52188;SDS011;38162;45.926;13.608;2022-07-29T07:36:29;9.73;;;3.65;;
52188;SDS011;38162;45.926;13.608;2022-07-29T07:38:55;16.15;;;3.60;;
52188;SDS011;38162;45.926;13.608;2022-07-29T07:41:21;7.05;;;3.05;;
52188;SDS011;38162;45.926;13.608;2022-07-29T07:43:47;8.52;;;3.33;;
52188;SDS011;38162;45.926;13.608;2022-07-29T07:46:13;5.20;;;3.28;;
52188;SDS011;38162;45.926;13.608;2022-07-29T07:48:39;8.25;;;3.22;;
52188;SDS011;38162;45.926;13.608;2022-07-29T07:51:05;6.82;;;3.00;;
52188;SDS011;38162;45.926;13.608;2022-07-29T07:53:32;8.38;;;2.90;;
52188;SDS011;38162;45.926;13.608;2022-07-29T07:55:57;8.77;;;3.40;;
52188;SDS011;38162;45.926;13.608;2022-07-29T07:58:23;4.97;;;3.65;;
52188;SDS011;38162;45.926;13.608;2022-07-29T08:00:49;6.97;;;3.70;;
52188;SDS011;38162;45.926;13.608;2022-07-29T08:03:15;10.65;;;3.67;;
52188;SDS011;38162;45.926;13.608;2022-07-29T08:05:40;10.38;;;4.00;;
52188;SDS011;38162;45.926;13.608;2022-07-29T08:08:06;7.43;;;3.45;;
52188;SDS011;38162;45.926;13.608;2022-07-29T08:10:32;9.18;;;3.38;;
52188;SDS011;38162;45.926;13.608;2022-07-29T08:13:17;8.77;;;4.10;;
52188;SDS011;38162;45.926;13.608;2022-07-29T08:15:43;5.10;;;3.25;;
52188;SDS011;38162;45.926;13.608;2022-07-29T08:18:11;7.72;;;3.42;;
52188;SDS011;38162;45.926;13.608;2022-07-29T08:20:37;8.00;;;3.35;;
52188;SDS011;38162;45.926;13.608;2022-07-29T08:23:04;9.50;;;3.58;;
52188;SDS011;38162;45.926;13.608;2022-07-29T08:25:33;5.03;;;3.40;;
52188;SDS011;38162;45.926;13.608;2022-07-29T08:28:00;8.13;;;3.63;;
52188;SDS011;38162;45.926;13.608;2022-07-29T08:30:26;6.32;;;3.17;;
52188;SDS011;38162;45.926;13.608;2022-07-29T08:32:52;7.55;;;3.65;;
52188;SDS011;38162;45.926;13.608;2022-07-29T08:35:18;5.13;;;3.60;;
52188;SDS011;38162;45.926;13.608;2022-07-29T08:37:45;8.02;;;4.25;;
52188;SDS011;38162;45.926;13.608;2022-07-29T08:40:11;7.78;;;3.75;;
52188;SDS011;38162;45.926;13.608;2022-07-29T08:42:37;6.80;;;3.47;;
52188;SDS011;38162;45.926;13.608;2022-07-29T08:45:03;6.63;;;3.88;;
52188;SDS011;38162;45.926;13.608;2022-07-29T08:47:29;11.45;;;3.58;;
52188;SDS011;38162;45.926;13.608;2022-07-29T08:49:55;9.30;;;3.13;;
52188;SDS011;38162;45.926;13.608;2022-07-29T08:52:21;7.35;;;3.60;;
52188;SDS011;38162;45.926;13.608;2022-07-29T08:54:50;6.97;;;3.00;;
52188;SDS011;38162;45.926;13.608;2022-07-29T08:57:18;6.72;;;3.40;;
52188;SDS011;38162;45.926;13.608;2022-07-29T08:59:44;5.07;;;3.22;;
52188;SDS011;38162;45.926;13.608;2022-07-29T09:02:14;7.03;;;3.60;;
52188;SDS011;38162;45.926;13.608;2022-07-29T09:04:44;3.47;;;2.92;;
52188;SDS011;38162;45.926;13.608;2022-07-29T09:07:10;5.10;;;3.20;;
52188;SDS011;38162;45.926;13.608;2022-07-29T09:09:40;5.07;;;3.17;;
52188;SDS011;38162;45.926;13.608;2022-07-29T09:12:07;4.47;;;3.30;;
52188;SDS011;38162;45.926;13.608;2022-07-29T09:14:36;10.43;;;3.72;;
52188;SDS011;38162;45.926;13.608;2022-07-29T09:17:03;7.22;;;3.58;;
52188;SDS011;38162;45.926;13.608;2022-07-29T09:19:33;4.65;;;3.45;;
52188;SDS011;38162;45.926;13.608;2022-07-29T09:22:03;6.68;;;3.53;;
52188;SDS011;38162;45.926;13.608;2022-07-29T09:27:20;7.55;;;4.20;;
52188;SDS011;38162;45.926;13.608;2022-07-29T09:32:28;8.43;;;4.18;;
52188;SDS011;38162;45.926;13.608;2022-07-29T09:35:14;7.60;;;3.72;;
52188;SDS011;38162;45.926;13.608;2022-07-29T09:37:47;6.93;;;3.67;;
52188;SDS011;38162;45.926;13.608;2022-07-29T09:40:17;4.75;;;3.60;;
52188;SDS011;38162;45.926;13.608;2022-07-29T09:42:44;8.23;;;3.92;;
52188;SDS011;38162;45.926;13.608;2022-07-29T09:45:11;8.02;;;4.43;;
52188;SDS011;38162;45.926;13.608;2022-07-29T09:47:44;6.70;;;4.50;;
52188;SDS011;38162;45.926;13.608;2022-07-29T09:50:14;8.48;;;4.18;;
52188;SDS011;38162;45.926;13.608;2022-07-29T09:52:47;6.57;;;4.00;;
52188;SDS011;38162;45.926;13.608;2022-07-29T09:55:15;9.73;;;4.50;;
52188;SDS011;38162;45.926;13.608;2022-07-29T09:57:41;7.57;;;4.53;;
52188;SDS011;38162;45.926;13.608;2022-07-29T10:02:35;8.50;;;4.47;;
52188;SDS011;38162;45.926;13.608;2022-07-29T10:05:04;7.88;;;3.85;;
52188;SDS011;38162;45.926;13.608;2022-07-29T10:07:46;5.50;;;3.92;;
52188;SDS011;38162;45.926;13.608;2022-07-29T10:10:35;6.85;;;4.35;;
52188;SDS011;38162;45.926;13.608;2022-07-29T10:13:09;7.32;;;4.45;;
52188;SDS011;38162;45.926;13.608;2022-07-29T10:15:38;9.82;;;4.32;;
52188;SDS011;38162;45.926;13.608;2022-07-29T10:18:06;8.95;;;4.70;;
52188;SDS011;38162;45.926;13.608;2022-07-29T10:20:33;9.18;;;4.63;;
52188;SDS011;38162;45.926;13.608;2022-07-29T10:22:59;16.60;;;4.97;;
52188;SDS011;38162;45.926;13.608;2022-07-29T10:25:25;7.93;;;4.13;;
52188;SDS011;38162;45.926;13.608;2022-07-29T10:27:51;34.50;;;5.47;;
52188;SDS011;38162;45.926;13.608;2022-07-29T10:30:18;7.68;;;4.00;;
52188;SDS011;38162;45.926;13.608;2022-07-29T10:35:47;8.43;;;4.07;;
52188;SDS011;38162;45.926;13.608;2022-07-29T10:41:07;5.25;;;3.15;;
52188;SDS011;38162;45.926;13.608;2022-07-29T10:43:51;4.60;;;3.17;;
52188;SDS011;38162;45.926;13.608;2022-07-29T10:46:24;8.57;;;3.15;;
52188;SDS011;38162;45.926;13.608;2022-07-29T10:49:13;8.52;;;3.30;;
52188;SDS011;38162;45.926;13.608;2022-07-29T10:51:58;5.18;;;3.10;;
52188;SDS011;38162;45.926;13.608;2022-07-29T11:05:16;8.05;;;3.20;;
52188;SDS011;38162;45.926;13.608;2022-07-29T11:10:35;4.93;;;3.30;;
52188;SDS011;38162;45.926;13.608;2022-07-29T11:13:00;6.10;;;3.08;;
52188;SDS011;38162;45.926;13.608;2022-07-29T11:15:26;8.05;;;3.60;;
52188;SDS011;38162;45.926;13.608;2022-07-29T11:26:20;9.75;;;3.15;;
52188;SDS011;38162;45.926;13.608;2022-07-29T11:31:40;11.82;;;2.65;;
52188;SDS011;38162;45.926;13.608;2022-07-29T11:34:26;10.05;;;3.00;;
52188;SDS011;38162;45.926;13.608;2022-07-29T11:39:36;6.80;;;2.90;;
52188;SDS011;38162;45.926;13.608;2022-07-29T11:44:54;5.77;;;2.90;;
52188;SDS011;38162;45.926;13.608;2022-07-29T11:47:36;5.78;;;3.05;;
52188;SDS011;38162;45.926;13.608;2022-07-29T11:50:05;8.13;;;2.83;;
52188;SDS011;38162;45.926;13.608;2022-07-29T11:54:59;4.18;;;2.47;;
52188;SDS011;38162;45.926;13.608;2022-07-29T11:57:28;7.20;;;3.33;;
52188;SDS011;38162;45.926;13.608;2022-07-29T11:59:54;5.88;;;2.97;;
52188;SDS011;38162;45.926;13.608;2022-07-29T12:02:22;6.13;;;3.10;;
52188;SDS011;38162;45.926;13.608;2022-07-29T12:04:49;6.10;;;3.10;;
52188;SDS011;38162;45.926;13.608;2022-07-29T12:07:25;4.22;;;2.97;;
52188;SDS011;38162;45.926;13.608;2022-07-29T12:09:55;5.70;;;2.67;;
52188;SDS011;38162;45.926;13.608;2022-07-29T12:12:21;6.30;;;3.20;;
52188;SDS011;38162;45.926;13.608;2022-07-29T12:14:47;8.20;;;2.90;;
52188;SDS011;38162;45.926;13.608;2022-07-29T12:17:33;4.70;;;3.25;;
52188;SDS011;38162;45.926;13.608;2022-07-29T12:20:03;6.55;;;2.97;;
52188;SDS011;38162;45.926;13.608;2022-07-29T12:22:30;5.40;;;3.38;;
52188;SDS011;38162;45.926;13.608;2022-07-29T12:25:02;6.35;;;4.07;;
52188;SDS011;38162;45.926;13.608;2022-07-29T12:27:29;5.35;;;3.53;;
52188;SDS011;38162;45.926;13.608;2022-07-29T12:29:59;6.55;;;3.20;;
52188;SDS011;38162;45.926;13.608;2022-07-29T12:32:32;4.70;;;3.22;;
52188;SDS011;38162;45.926;13.608;2022-07-29T12:35:10;5.03;;;3.20;;
52188;SDS011;38162;45.926;13.608;2022-07-29T12:37:46;4.50;;;3.38;;
52188;SDS011;38162;45.926;13.608;2022-07-29T12:40:14;5.47;;;3.55;;
52188;SDS011;38162;45.926;13.608;2022-07-29T12:45:48;4.03;;;3.20;;
52188;SDS011;38162;45.926;13.608;2022-07-29T12:48:15;6.55;;;3.20;;
52188;SDS011;38162;45.926;13.608;2022-07-29T12:51:00;5.78;;;3.58;;
52188;SDS011;38162;45.926;13.608;2022-07-29T12:53:27;5.68;;;2.83;;
52188;SDS011;38162;45.926;13.608;2022-07-29T12:55:54;3.92;;;2.90;;
52188;SDS011;38162;45.926;13.608;2022-07-29T13:01:03;6.20;;;2.95;;
52188;SDS011;38162;45.926;13.608;2022-07-29T13:03:49;4.97;;;2.90;;
52188;SDS011;38162;45.926;13.608;2022-07-29T13:06:37;4.70;;;3.53;;
52188;SDS011;38162;45.926;13.608;2022-07-29T13:09:18;7.72;;;3.15;;
52188;SDS011;38162;45.926;13.608;2022-07-29T13:11:48;6.53;;;3.25;;
52188;SDS011;38162;45.926;13.608;2022-07-29T13:14:31;6.53;;;4.00;;
52188;SDS011;38162;45.926;13.608;2022-07-29T13:17:09;8.35;;;3.05;;
52188;SDS011;38162;45.926;13.608;2022-07-29T13:19:45;8.15;;;3.63;;
52188;SDS011;38162;45.926;13.608;2022-07-29T13:22:20;13.63;;;3.22;;
52188;SDS011;38162;45.926;13.608;2022-07-29T13:24:50;12.00;;;3.17;;
52188;SDS011;38162;45.926;13.608;2022-07-29T13:27:21;7.60;;;3.20;;
52188;SDS011;38162;45.926;13.608;2022-07-29T13:29:48;5.78;;;2.75;;
52188;SDS011;38162;45.926;13.608;2022-07-29T13:32:18;5.03;;;3.05;;
52188;SDS011;38162;45.926;13.608;2022-07-29T13:34:44;8.80;;;3.10;;
52188;SDS011;38162;45.926;13.608;2022-07-29T13:37:10;6.38;;;3.22;;
52188;SDS011;38162;45.926;13.608;2022-07-29T13:39:36;10.15;;;2.55;;
52188;SDS011;38162;45.926;13.608;2022-07-29T13:42:02;5.50;;;2.30;;
52188;SDS011;38162;45.926;13.608;2022-07-29T13:44:29;4.88;;;2.83;;
52188;SDS011;38162;45.926;13.608;2022-07-29T13:46:54;5.70;;;3.10;;
52188;SDS011;38162;45.926;13.608;2022-07-29T13:49:21;5.22;;;3.08;;
52188;SDS011;38162;45.926;13.608;2022-07-29T13:51:47;6.32;;;2.45;;
52188;SDS011;38162;45.926;13.608;2022-07-29T13:54:13;4.35;;;2.88;;
52188;SDS011;38162;45.926;13.608;2022-07-29T13:56:39;4.55;;;3.15;;
52188;SDS011;38162;45.926;13.608;2022-07-29T13:59:05;6.80;;;2.83;;
52188;SDS011;38162;45.926;13.608;2022-07-29T14:01:31;4.03;;;2.92;;
52188;SDS011;38162;45.926;13.608;2022-07-29T14:03:56;5.75;;;2.65;;
52188;SDS011;38162;45.926;13.608;2022-07-29T14:06:22;4.40;;;3.00;;
52188;SDS011;38162;45.926;13.608;2022-07-29T14:08:48;5.97;;;2.70;;
52188;SDS011;38162;45.926;13.608;2022-07-29T14:11:13;7.15;;;2.80;;
52188;SDS011;38162;45.926;13.608;2022-07-29T14:13:39;5.68;;;2.65;;
52188;SDS011;38162;45.926;13.608;2022-07-29T14:16:05;7.57;;;2.70;;
52188;SDS011;38162;45.926;13.608;2022-07-29T14:18:31;11.50;;;3.13;;
52188;SDS011;38162;45.926;13.608;2022-07-29T14:20:57;4.80;;;2.90;;
52188;SDS011;38162;45.926;13.608;2022-07-29T14:23:23;3.92;;;2.22;;
52188;SDS011;38162;45.926;13.608;2022-07-29T14:25:49;2.60;;;2.10;;
52188;SDS011;38162;45.926;13.608;2022-07-29T14:28:15;4.65;;;2.53;;
52188;SDS011;38162;45.926;13.608;2022-07-29T14:30:40;2.78;;;1.88;;
52188;SDS011;38162;45.926;13.608;2022-07-29T14:33:06;2.80;;;1.70;;
52188;SDS011;38162;45.926;13.608;2022-07-29T14:35:33;3.25;;;1.83;;
52188;SDS011;38162;45.926;13.608;2022-07-29T14:37:58;4.22;;;2.30;;
52188;SDS011;38162;45.926;13.608;2022-07-29T14:40:24;3.42;;;2.58;;
52188;SDS011;38162;45.926;13.608;2022-07-29T14:42:50;4.22;;;2.90;;
52188;SDS011;38162;45.926;13.608;2022-07-29T14:45:16;4.82;;;2.67;;
52188;SDS011;38162;45.926;13.608;2022-07-29T14:47:42;4.20;;;2.80;;
52188;SDS011;38162;45.926;13.608;2022-07-29T14:50:08;2.72;;;1.67;;
52188;SDS011;38162;45.926;13.608;2022-07-29T14:52:35;3.63;;;2.10;;
52188;SDS011;38162;45.926;13.608;2022-07-29T14:55:01;2.47;;;1.85;;
52188;SDS011;38162;45.926;13.608;2022-07-29T14:57:28;4.38;;;2.60;;
52188;SDS011;38162;45.926;13.608;2022-07-29T14:59:54;3.20;;;2.15;;
52188;SDS011;38162;45.926;13.608;2022-07-29T15:02:20;5.03;;;2.20;;
52188;SDS011;38162;45.926;13.608;2022-07-29T15:04:46;5.78;;;2.90;;
52188;SDS011;38162;45.926;13.608;2022-07-29T15:07:13;7.68;;;2.70;;
52188;SDS011;38162;45.926;13.608;2022-07-29T15:09:39;6.10;;;2.90;;
52188;SDS011;38162;45.926;13.608;2022-07-29T15:12:05;5.18;;;2.92;;
52188;SDS011;38162;45.926;13.608;2022-07-29T15:14:31;4.72;;;2.38;;
52188;SDS011;38162;45.926;13.608;2022-07-29T15:16:57;7.03;;;2.10;;
52188;SDS011;38162;45.926;13.608;2022-07-29T15:19:23;7.38;;;1.95;;
52188;SDS011;38162;45.926;13.608;2022-07-29T15:21:49;4.22;;;2.00;;
52188;SDS011;38162;45.926;13.608;2022-07-29T15:24:18;6.68;;;2.40;;
52188;SDS011;38162;45.926;13.608;2022-07-29T15:26:44;3.80;;;2.60;;
52188;SDS011;38162;45.926;13.608;2022-07-29T15:29:10;7.07;;;2.28;;
52188;SDS011;38162;45.926;13.608;2022-07-29T15:31:36;3.63;;;2.03;;
52188;SDS011;38162;45.926;13.608;2022-07-29T15:34:03;4.95;;;2.75;;
52188;SDS011;38162;45.926;13.608;2022-07-29T15:36:29;5.78;;;2.30;;
52188;SDS011;38162;45.926;13.608;2022-07-29T15:38:55;5.57;;;2.40;;
52188;SDS011;38162;45.926;13.608;2022-07-29T15:41:21;5.38;;;2.35;;
52188;SDS011;38162;45.926;13.608;2022-07-29T15:43:47;4.28;;;2.38;;
52188;SDS011;38162;45.926;13.608;2022-07-29T15:46:14;4.55;;;2.10;;
52188;SDS011;38162;45.926;13.608;2022-07-29T15:49:01;2.38;;;1.63;;